Time;durP1;ratioP1;P1;durP2;ratioP2;P2;SDS_P1;SDS_P2;PMS_P1;PMS_P2;Temp;Humidity;BMP_temperature;BMP_pressure;BME280_temperature;BME280_humidity;BME280_pressure;Samples;Min_cycle;Max_cycle;Signal;HPM_P1;HPM_P2
2021/06/11 00:01:23;;;;;;;9.20;7.83;;;;;;;15.69;89.46;99949.20;1748707;82;21223;-55
2021/06/11 00:04:30;;;;;;;19.17;9.28;;;;;;;15.68;89.60;99941.97;1748537;82;21239;-55
2021/06/11 00:07:38;;;;;;;9.70;8.48;;;;;;;15.69;89.72;99945.06;1748588;82;21775;-55
2021/06/11 00:10:43;;;;;;;13.03;8.03;;;;;;;15.69;89.63;99939.55;1712756;82;21373;-55
2021/06/11 00:13:47;;;;;;;11.28;7.67;;;;;;;15.68;89.72;99939.77;1710933;84;21192;-55
2021/06/11 00:16:53;;;;;;;10.98;7.90;;;;;;;15.67;89.64;99945.81;1713260;82;21215;-55
2021/06/11 00:19:59;;;;;;;10.13;8.05;;;;;;;15.66;89.62;99946.03;1712673;83;21494;-55
2021/06/11 00:23:04;;;;;;;9.08;8.18;;;;;;;15.64;89.76;99943.49;1712257;83;21347;-54
2021/06/11 00:26:09;;;;;;;9.65;8.65;;;;;;;15.64;89.84;99953.15;1712848;83;21208;-54
2021/06/11 00:29:15;;;;;;;10.25;8.55;;;;;;;15.60;89.76;99952.43;1712666;83;21438;-55
2021/06/11 00:32:19;;;;;;;16.02;10.25;;;;;;;15.55;89.89;99950.33;1711051;83;21725;-55
2021/06/11 00:35:26;;;;;;;11.18;8.68;;;;;;;15.50;90.00;99950.13;1681277;85;21271;-54
2021/06/11 00:38:32;;;;;;;9.78;8.73;;;;;;;15.48;90.19;99946.73;1680469;85;21232;-54
2021/06/11 00:41:37;;;;;;;10.48;8.70;;;;;;;15.48;90.46;99952.25;1682523;85;21260;-54
2021/06/11 00:44:42;;;;;;;12.33;9.03;;;;;;;15.48;90.63;99943.13;1681951;85;21791;-54
2021/06/11 00:47:48;;;;;;;9.28;8.30;;;;;;;15.50;90.81;99951.52;1681391;85;21363;-54
2021/06/11 00:50:54;;;;;;;12.33;9.38;;;;;;;15.52;90.90;99946.63;1682103;85;21390;-55
2021/06/11 00:54:01;;;;;;;11.15;8.98;;;;;;;15.53;90.85;99946.94;1712953;84;21188;-55
2021/06/11 00:57:07;;;;;;;9.65;8.65;;;;;;;15.51;90.68;99942.16;1712659;83;21221;-55
2021/06/11 01:00:14;;;;;;;15.13;9.88;;;;;;;15.49;90.72;99942.90;1712744;82;21382;-54
2021/06/11 01:03:19;;;;;;;12.13;9.78;;;;;;;15.46;90.67;99937.83;1712006;83;21276;-55
2021/06/11 01:06:26;;;;;;;10.32;9.28;;;;;;;15.45;90.70;99945.80;1712612;83;21272;-55
2021/06/11 01:09:31;;;;;;;10.40;9.33;;;;;;;15.42;90.75;99939.34;1712977;83;21296;-55
2021/06/11 01:12:37;;;;;;;10.03;8.65;;;;;;;15.36;90.71;99944.32;1712969;83;21259;-55
2021/06/11 01:15:43;;;;;;;10.72;9.60;;;;;;;15.31;90.86;99946.88;1712593;84;21386;-55
2021/06/11 01:18:49;;;;;;;12.35;9.65;;;;;;;15.25;90.96;99953.27;1709209;83;21236;-55
2021/06/11 01:22:01;;;;;;;10.82;9.55;;;;;;;15.24;91.18;99954.31;1691688;85;21242;-55
2021/06/11 01:25:21;;;;;;;14.13;9.53;;;;;;;15.24;91.39;99952.11;1722200;82;21208;-55
2021/06/11 01:28:27;;;;;;;13.95;9.08;;;;;;;15.23;91.42;99950.39;1720965;82;21733;-56
2021/06/11 01:31:32;;;;;;;10.90;9.53;;;;;;;15.24;91.62;99952.11;1723718;82;21224;-56
2021/06/11 01:34:45;;;;;;;10.63;9.50;;;;;;;15.25;91.69;99961.54;1722476;82;21346;-56
2021/06/11 01:37:50;;;;;;;11.85;9.53;;;;;;;15.29;91.80;99959.17;1722372;82;21284;-55
2021/06/11 01:40:55;;;;;;;13.70;9.60;;;;;;;15.31;91.79;99965.33;1721957;82;21231;-55
2021/06/11 01:44:01;;;;;;;11.45;9.20;;;;;;;15.34;91.91;99962.98;1720995;82;21212;-55
2021/06/11 01:47:07;;;;;;;12.13;9.80;;;;;;;15.34;91.94;99960.75;1693221;85;21211;-55
2021/06/11 01:50:14;;;;;;;11.45;9.00;;;;;;;15.35;91.97;99960.53;1721547;82;21220;-55
2021/06/11 01:53:21;;;;;;;10.80;9.00;;;;;;;15.34;91.93;99963.51;1722541;82;21212;-55
2021/06/11 01:56:27;;;;;;;10.08;8.73;;;;;;;15.36;92.16;99965.01;1721131;82;21764;-55
2021/06/11 01:59:33;;;;;;;11.15;9.18;;;;;;;15.43;92.26;99962.27;1721157;82;21729;-57
2021/06/11 02:02:38;;;;;;;13.32;8.60;;;;;;;15.46;92.22;99961.27;1693239;84;21243;-56
2021/06/11 02:05:45;;;;;;;10.90;9.58;;;;;;;15.48;92.13;99955.02;1721263;83;21291;-56
2021/06/11 02:08:55;;;;;;;14.87;9.45;;;;;;;15.51;91.96;99965.61;1722001;82;21255;-56
2021/06/11 02:12:01;;;;;;;10.88;9.43;;;;;;;15.53;91.77;99959.35;1721303;82;21200;-56
2021/06/11 02:15:07;;;;;;;13.55;9.15;;;;;;;15.55;91.68;99958.61;1720843;83;21258;-56
2021/06/11 02:18:13;;;;;;;10.48;9.38;;;;;;;15.58;91.67;99954.55;1721325;82;21197;-56
2021/06/11 02:21:18;;;;;;;12.18;9.30;;;;;;;15.61;91.61;99959.11;1707572;82;21283;-56
2021/06/11 02:24:23;;;;;;;10.00;8.65;;;;;;;15.63;91.58;99965.27;1712679;83;21196;-56
2021/06/11 02:27:28;;;;;;;13.25;10.05;;;;;;;15.62;91.35;99965.48;1712217;83;21374;-56
2021/06/11 02:30:34;;;;;;;18.05;9.25;;;;;;;15.62;91.46;99958.03;1712694;84;21430;-56
2021/06/11 02:33:40;;;;;;;12.45;9.68;;;;;;;15.69;91.75;99960.24;1712397;83;21355;-56
2021/06/11 02:36:45;;;;;;;12.75;9.00;;;;;;;15.73;91.64;99962.04;1712603;84;21346;-55
2021/06/11 02:39:50;;;;;;;13.55;9.28;;;;;;;15.78;91.49;99960.30;1713041;83;21879;-57
2021/06/11 02:43:03;;;;;;;12.20;9.48;;;;;;;15.83;91.28;99960.48;1713062;83;21446;-55
2021/06/11 02:46:43;;;;;;;13.65;9.38;;;;;;;15.88;90.91;99963.45;1712793;83;21386;-55
2021/06/11 02:50:04;;;;;;;10.08;8.33;;;;;;;15.94;90.63;99964.46;1712799;83;21934;-56
2021/06/11 02:53:09;;;;;;;9.93;8.90;;;;;;;15.99;90.32;99964.65;1712597;83;21768;-55
2021/06/11 02:56:24;;;;;;;9.75;8.10;;;;;;;16.07;90.13;99966.62;1712730;83;21951;-56
2021/06/11 02:59:45;;;;;;;11.03;8.58;;;;;;;16.11;89.83;99967.04;1712839;83;21418;-55
2021/06/11 03:03:08;;;;;;;13.98;9.08;;;;;;;16.13;89.60;99971.78;1715838;83;21354;-56
2021/06/11 03:06:14;;;;;;;10.32;8.60;;;;;;;16.18;89.63;99975.59;1711866;83;21386;-57
2021/06/11 03:09:25;;;;;;;9.83;8.38;;;;;;;16.24;89.58;99975.22;1712730;84;21233;-56
2021/06/11 03:12:33;;;;;;;9.18;7.95;;;;;;;16.32;89.42;99969.43;1713277;83;21868;-57
2021/06/11 03:15:41;;;;;;;10.98;8.20;;;;;;;16.35;89.05;99965.70;1712147;83;21606;-57
2021/06/11 03:18:53;;;;;;;8.80;7.80;;;;;;;16.40;88.96;99958.97;1712843;83;21224;-57
2021/06/11 03:22:09;;;;;;;11.07;8.73;;;;;;;16.46;88.73;99966.91;1707388;82;21395;-56
2021/06/11 03:25:17;;;;;;;12.63;8.38;;;;;;;16.48;88.56;99958.41;1713065;82;21283;-56
2021/06/11 03:28:31;;;;;;;12.10;9.05;;;;;;;16.49;88.59;99954.03;1744107;82;21363;-56
2021/06/11 03:31:49;;;;;;;15.08;8.68;;;;;;;16.56;88.55;99959.51;1744440;82;21184;-55
2021/06/11 03:34:54;;;;;;;15.90;9.00;;;;;;;16.64;88.29;99960.62;1713603;82;21311;-56
2021/06/11 03:38:02;;;;;;;12.90;9.25;;;;;;;16.67;87.89;99958.78;1744089;82;21228;-56
2021/06/11 03:41:08;;;;;;;12.85;8.38;;;;;;;16.74;87.86;99963.20;1714256;82;21232;-57
2021/06/11 03:44:16;;;;;;;11.75;8.50;;;;;;;16.84;87.87;99970.99;1743841;82;21235;-57
2021/06/11 03:47:24;;;;;;;11.00;8.15;;;;;;;16.94;87.68;99956.95;1707615;83;21395;-55
2021/06/11 03:50:32;;;;;;;9.78;7.78;;;;;;;17.03;87.45;99964.44;1742901;82;21240;-57
2021/06/11 03:53:38;;;;;;;8.85;7.75;;;;;;;17.14;87.32;99967.27;1706879;83;21347;-57
2021/06/11 03:56:44;;;;;;;11.15;7.70;;;;;;;17.25;87.01;99971.23;1715029;83;21224;-57
2021/06/11 03:59:51;;;;;;;8.80;7.45;;;;;;;17.34;86.49;99965.69;1744267;82;21757;-57
2021/06/11 04:02:59;;;;;;;9.23;8.10;;;;;;;17.43;86.21;99967.07;1709445;83;21354;-56
2021/06/11 04:06:12;;;;;;;10.82;7.12;;;;;;;17.45;85.73;99971.35;1714571;82;21282;-58
2021/06/11 04:09:20;;;;;;;9.40;7.33;;;;;;;17.48;85.47;99972.80;1743554;82;21231;-56
2021/06/11 04:12:32;;;;;;;10.43;7.25;;;;;;;17.61;85.61;99971.27;1706144;83;21209;-57
2021/06/11 04:15:39;;;;;;;10.00;7.65;;;;;;;17.73;85.05;99970.78;1743235;82;21772;-57
2021/06/11 04:18:45;;;;;;;10.58;7.55;;;;;;;17.83;84.91;99969.71;1707233;83;21343;-57
2021/06/11 04:21:50;;;;;;;9.00;7.20;;;;;;;17.96;84.73;99982.01;1692002;83;21259;-58
2021/06/11 04:24:55;;;;;;;9.08;8.03;;;;;;;18.05;84.34;99976.97;1704033;83;21243;-59
2021/06/11 04:28:01;;;;;;;9.33;8.23;;;;;;;18.21;84.39;99983.25;1704569;84;21706;-56
2021/06/11 04:31:06;;;;;;;10.72;8.23;;;;;;;18.35;83.91;99981.44;1690771;83;21219;-57
2021/06/11 04:34:13;;;;;;;8.55;7.33;;;;;;;18.44;83.21;99985.59;1704584;83;21792;-57
2021/06/11 04:37:19;;;;;;;8.98;8.08;;;;;;;18.54;82.56;99993.34;1703380;84;21371;-56
2021/06/11 04:40:26;;;;;;;12.13;8.00;;;;;;;18.61;82.01;99994.95;1690911;83;21385;-57
2021/06/11 04:43:32;;;;;;;11.40;8.38;;;;;;;18.73;81.81;99990.80;1703956;83;21458;-56
2021/06/11 04:46:40;;;;;;;9.20;7.83;;;;;;;18.87;81.54;99998.66;1702815;83;21284;-57
2021/06/11 04:49:48;;;;;;;11.15;8.25;;;;;;;19.02;81.23;99996.29;1735604;82;21367;-58
2021/06/11 04:52:55;;;;;;;9.43;7.45;;;;;;;19.16;80.84;100003.30;1733437;82;21188;-57
2021/06/11 04:56:00;;;;;;;10.25;8.85;;;;;;;19.33;80.32;99997.34;1692140;84;21232;-57
2021/06/11 04:59:06;;;;;;;11.30;9.30;;;;;;;19.54;79.76;99996.41;1698670;84;21173;-57
2021/06/11 05:02:12;;;;;;;9.23;7.70;;;;;;;19.65;78.92;100002.50;1701833;84;21200;-58
2021/06/11 05:05:19;;;;;;;11.83;7.80;;;;;;;19.78;78.57;100000.85;1688314;84;21227;-58
2021/06/11 05:08:24;;;;;;;9.33;7.72;;;;;;;19.93;77.91;100000.63;1703811;83;21244;-57
2021/06/11 05:11:30;;;;;;;10.95;9.05;;;;;;;20.08;77.48;99998.72;1703353;84;21243;-58
2021/06/11 05:14:36;;;;;;;13.05;6.95;;;;;;;20.20;77.20;100007.34;1735017;82;21259;-57
2021/06/11 05:17:41;;;;;;;8.20;7.37;;;;;;;20.32;77.01;99999.83;1696298;83;21185;-56
2021/06/11 05:20:49;;;;;;;9.93;7.85;;;;;;;20.41;76.54;100003.88;1692273;82;21209;-57
2021/06/11 05:23:54;;;;;;;8.05;7.25;;;;;;;20.46;76.27;100001.20;1659248;84;21251;-57
2021/06/11 05:27:04;;;;;;;7.95;7.15;;;;;;;20.55;76.08;100012.21;1681131;84;21557;-57
2021/06/11 05:30:08;;;;;;;8.30;7.30;;;;;;;20.66;75.71;100001.57;1751115;80;21199;-58
2021/06/11 05:33:16;;;;;;;9.15;7.45;;;;;;;20.72;75.73;100001.12;1710193;83;21231;-57
2021/06/11 05:36:20;;;;;;;9.55;7.28;;;;;;;20.80;75.54;100003.50;1683783;84;21193;-56
2021/06/11 05:39:26;;;;;;;8.38;7.10;;;;;;;20.89;75.21;99996.42;1708390;83;21546;-58
2021/06/11 05:42:32;;;;;;;7.12;6.42;;;;;;;20.95;74.77;100002.94;1695578;83;21196;-56
2021/06/11 05:45:39;;;;;;;10.88;7.70;;;;;;;21.02;74.36;100009.19;1684351;84;21214;-55
2021/06/11 05:48:44;;;;;;;11.33;8.08;;;;;;;20.98;74.16;100010.23;1681293;83;21250;-57
2021/06/11 05:51:49;;;;;;;9.30;8.33;;;;;;;21.03;74.17;100008.08;1710007;82;21208;-57
2021/06/11 05:54:54;;;;;;;11.18;7.10;;;;;;;21.10;74.16;100007.38;1732457;82;21203;-56
2021/06/11 05:58:03;;;;;;;8.38;6.42;;;;;;;21.17;73.90;100007.50;1740416;82;21783;-57
2021/06/11 06:01:07;;;;;;;8.98;7.90;;;;;;;21.24;73.37;100010.97;1739066;82;21624;-56
2021/06/11 06:04:12;;;;;;;8.80;6.92;;;;;;;21.37;73.15;100021.77;1701350;83;21193;-56
2021/06/11 06:07:19;;;;;;;8.78;6.08;;;;;;;21.46;72.22;100009.09;1701840;83;21221;-56
2021/06/11 06:10:28;;;;;;;7.60;6.47;;;;;;;21.56;71.46;100011.18;1708561;84;21298;-56
2021/06/11 06:13:32;;;;;;;9.65;5.80;;;;;;;21.62;70.64;100009.61;1696204;84;21729;-56
2021/06/11 06:16:38;;;;;;;6.33;5.47;;;;;;;21.73;70.04;100007.80;1711188;83;21255;-59
2021/06/11 06:19:43;;;;;;;6.85;6.12;;;;;;;21.83;69.37;100012.16;1701688;84;21197;-58
2021/06/11 06:22:51;;;;;;;6.87;6.03;;;;;;;21.94;68.73;100018.17;1705187;83;21219;-57
2021/06/11 06:25:56;;;;;;;6.50;5.58;;;;;;;22.00;68.35;100012.95;1688352;82;21248;-58
2021/06/11 06:29:02;;;;;;;6.45;5.47;;;;;;;22.02;67.77;100018.54;1699936;83;21227;-57
2021/06/11 06:32:10;;;;;;;6.97;5.28;;;;;;;22.05;67.75;100007.44;1692678;84;22065;-57
2021/06/11 06:35:16;;;;;;;6.90;6.20;;;;;;;22.09;66.95;100006.66;1711990;82;21299;-57
2021/06/11 06:38:24;;;;;;;7.65;5.92;;;;;;;22.13;67.09;100012.56;1711024;83;21248;-59
2021/06/11 06:41:29;;;;;;;7.67;5.70;;;;;;;22.19;67.82;100017.09;1710630;83;21239;-56
2021/06/11 06:44:34;;;;;;;7.67;5.60;;;;;;;22.17;67.10;100021.54;1711256;83;21240;-58
2021/06/11 06:47:44;;;;;;;6.45;5.42;;;;;;;22.16;67.56;100019.86;1709665;83;21263;-58
2021/06/11 06:50:55;;;;;;;5.25;4.70;;;;;;;22.16;67.43;100017.61;1645559;85;21232;-57
2021/06/11 06:54:05;;;;;;;7.12;4.92;;;;;;;22.14;66.12;100023.45;1685085;84;21215;-57
2021/06/11 06:57:12;;;;;;;10.78;6.05;;;;;;;22.12;66.39;100022.01;1704900;82;21188;-56
2021/06/11 07:00:19;;;;;;;6.35;4.72;;;;;;;22.15;66.50;100023.73;1710176;83;21367;-56
2021/06/11 07:03:24;;;;;;;6.17;5.00;;;;;;;22.27;66.42;100025.55;1710700;83;21294;-59
2021/06/11 07:06:32;;;;;;;9.30;4.35;;;;;;;22.40;65.97;100025.15;1699094;82;21200;-58
2021/06/11 07:09:40;;;;;;;5.05;4.58;;;;;;;22.55;66.08;100023.41;1703685;83;21216;-56
2021/06/11 07:12:45;;;;;;;6.25;4.28;;;;;;;22.75;65.76;100026.97;1704384;82;21521;-57
2021/06/11 07:15:51;;;;;;;6.78;5.15;;;;;;;22.83;64.52;100022.31;1683900;84;21227;-59
2021/06/11 07:18:58;;;;;;;5.92;4.75;;;;;;;22.91;63.63;100024.05;1690761;84;21248;-57
2021/06/11 07:22:07;;;;;;;5.62;4.28;;;;;;;23.06;64.24;100017.77;1689994;84;21223;-58
2021/06/11 07:25:14;;;;;;;4.65;4.15;;;;;;;23.22;62.43;100025.17;1701583;81;21224;-59
2021/06/11 07:28:20;;;;;;;9.83;5.87;;;;;;;23.35;60.84;100031.75;1742372;81;21235;-58
2021/06/11 07:31:29;;;;;;;6.30;4.97;;;;;;;23.40;61.84;100027.02;1740745;82;21208;-57
2021/06/11 07:34:36;;;;;;;8.55;5.97;;;;;;;23.50;62.28;100027.65;1737606;80;21246;-56
2021/06/11 07:37:42;;;;;;;6.28;5.33;;;;;;;23.55;62.17;100021.56;1726608;82;21235;-60
2021/06/11 07:40:51;;;;;;;5.45;4.72;;;;;;;23.56;61.97;100026.02;1708637;84;21225;-58
2021/06/11 07:43:57;;;;;;;6.22;5.37;;;;;;;23.57;60.83;100021.29;1716835;83;21263;-62
2021/06/11 07:47:03;;;;;;;8.50;5.28;;;;;;;23.65;61.59;100020.78;1698371;84;21486;-56
2021/06/11 07:50:11;;;;;;;4.85;4.20;;;;;;;23.72;60.86;100024.74;1721838;82;21208;-57
2021/06/11 07:53:17;;;;;;;4.75;4.25;;;;;;;23.81;60.80;100023.97;1733505;80;21192;-58
2021/06/11 07:56:22;;;;;;;5.42;4.20;;;;;;;23.92;59.16;100021.51;1717292;83;21191;-57
2021/06/11 07:59:28;;;;;;;6.05;3.85;;;;;;;24.03;58.64;100022.42;1744827;82;21819;-57
2021/06/11 08:02:34;;;;;;;3.87;3.20;;;;;;;24.06;58.40;100020.48;1743501;80;21879;-57
2021/06/11 08:05:39;;;;;;;4.17;3.72;;;;;;;24.07;57.20;100014.61;1740043;80;21377;-58
2021/06/11 08:08:46;;;;;;;7.35;4.53;;;;;;;24.04;57.33;100022.15;1740513;82;21215;-57
2021/06/11 08:11:51;;;;;;;5.30;4.80;;;;;;;24.15;58.06;100021.66;1741125;82;21200;-56
2021/06/11 08:14:58;;;;;;;5.33;4.72;;;;;;;24.17;58.34;100020.81;1725022;82;21277;-56
2021/06/11 08:18:06;;;;;;;5.70;4.72;;;;;;;24.18;59.06;100011.32;1734042;82;21256;-57
2021/06/11 08:21:14;;;;;;;7.72;4.62;;;;;;;24.31;58.80;100015.84;1706949;83;21208;-57
2021/06/11 08:24:20;;;;;;;3.58;3.10;;;;;;;24.21;57.30;100022.81;1709663;83;21601;-57
2021/06/11 08:27:27;;;;;;;6.03;4.12;;;;;;;23.98;56.69;100017.66;1699967;82;21544;-56
2021/06/11 08:30:33;;;;;;;7.12;5.22;;;;;;;23.88;57.25;100011.96;1710076;84;21800;-57
2021/06/11 08:33:42;;;;;;;6.83;6.05;;;;;;;23.94;57.69;100017.05;1712309;83;21350;-55
2021/06/11 08:36:49;;;;;;;5.55;4.03;;;;;;;23.99;58.25;100014.31;1712893;83;21467;-56
2021/06/11 08:39:57;;;;;;;6.03;4.47;;;;;;;24.05;57.59;100012.66;1709952;83;21597;-54
2021/06/11 08:43:04;;;;;;;6.55;3.87;;;;;;;24.07;57.95;100018.80;1708947;83;21374;-57
2021/06/11 08:46:11;;;;;;;7.40;5.17;;;;;;;24.14;57.66;100011.56;1707505;83;21216;-56
2021/06/11 08:49:17;;;;;;;6.60;4.62;;;;;;;24.09;57.51;100002.59;1701327;83;21239;-55
2021/06/11 08:52:31;;;;;;;5.20;4.35;;;;;;;24.04;57.75;100000.35;1709894;81;21216;-56
2021/06/11 08:55:36;;;;;;;5.33;4.70;;;;;;;24.07;58.36;99992.81;1701326;83;21188;-56
2021/06/11 08:58:49;;;;;;;4.20;3.80;;;;;;;23.93;58.11;99985.42;1698921;83;21199;-56
2021/06/11 09:01:57;;;;;;;5.28;3.98;;;;;;;23.85;58.07;99990.72;1709227;84;21240;-56
2021/06/11 09:05:04;;;;;;;13.25;11.88;;;;;;;23.82;58.16;99986.49;1702561;83;21275;-57
2021/06/11 09:08:28;;;;;;;6.33;4.95;;;;;;;23.84;58.10;99979.23;1710028;83;21617;-57
2021/06/11 09:11:40;;;;;;;5.20;4.20;;;;;;;23.85;57.81;99976.16;1674663;85;21246;-58
2021/06/11 09:15:03;;;;;;;10.23;4.75;;;;;;;23.85;58.01;99978.95;1702166;84;21192;-57
2021/06/11 09:18:08;;;;;;;7.08;4.60;;;;;;;23.75;58.00;99971.94;1704715;83;21192;-57
2021/06/11 09:21:33;;;;;;;6.28;4.28;;;;;;;23.73;58.35;99969.95;1712075;83;21705;-57
2021/06/11 09:24:44;;;;;;;4.87;4.20;;;;;;;23.89;57.63;99966.12;1650739;86;21788;-57
2021/06/11 09:27:59;;;;;;;7.10;4.22;;;;;;;24.10;56.70;99953.92;1686392;83;21197;-55
2021/06/11 09:31:05;;;;;;;6.35;4.67;;;;;;;24.27;56.32;99948.97;1746171;82;22080;-56
2021/06/11 09:34:13;;;;;;;11.00;5.72;;;;;;;24.31;57.08;99947.28;1681187;85;21725;-56
2021/06/11 09:37:30;;;;;;;6.47;5.25;;;;;;;24.27;58.64;99945.32;1681208;83;21255;-56
2021/06/11 09:40:34;;;;;;;5.37;4.65;;;;;;;24.24;59.25;99951.47;1717813;83;21424;-55
2021/06/11 09:43:39;;;;;;;5.55;4.20;;;;;;;24.20;58.70;99950.31;1682104;85;21205;-56
2021/06/11 09:46:54;;;;;;;7.62;4.53;;;;;;;24.11;58.25;99957.57;1715003;83;21409;-57
2021/06/11 09:50:01;;;;;;;5.65;4.08;;;;;;;24.00;58.11;99951.66;1682240;85;21556;-55
2021/06/11 09:53:13;;;;;;;6.25;4.65;;;;;;;24.06;59.00;99950.55;1728784;82;21369;-56
2021/06/11 09:56:33;;;;;;;5.50;3.65;;;;;;;24.26;58.94;99951.46;1748379;82;21316;-55
2021/06/11 09:59:49;;;;;;;4.75;3.85;;;;;;;24.50;58.96;99947.05;1710861;83;21845;-56
2021/06/11 10:02:56;;;;;;;7.47;4.25;;;;;;;24.82;57.23;99949.64;1748618;82;21244;-55
2021/06/11 10:06:09;;;;;;;7.55;4.22;;;;;;;25.00;56.87;99952.75;1748429;82;21262;-52
2021/06/11 10:09:14;;;;;;;5.85;4.15;;;;;;;25.22;57.20;99956.64;1748215;82;21775;-53
2021/06/11 10:12:20;;;;;;;4.83;3.65;;;;;;;25.45;55.65;99947.66;1710484;84;21371;-53
2021/06/11 10:15:24;;;;;;;5.85;3.58;;;;;;;25.73;54.43;99953.20;1711045;84;21347;-52
2021/06/11 10:18:30;;;;;;;3.98;3.22;;;;;;;25.95;53.43;99941.06;1728614;82;21686;-52
2021/06/11 10:21:40;;;;;;;7.72;2.90;;;;;;;25.92;52.41;99945.30;1723162;82;21168;-54
2021/06/11 10:24:45;;;;;;;4.83;2.70;;;;;;;25.91;51.51;99939.39;1729090;82;21824;-53
2021/06/11 10:27:52;;;;;;;3.80;2.90;;;;;;;25.90;49.79;99936.31;1704253;80;21891;-54
2021/06/11 10:31:06;;;;;;;4.40;3.37;;;;;;;25.90;50.55;99930.70;1737741;80;21748;-54
2021/06/11 10:34:13;;;;;;;5.47;3.22;;;;;;;26.08;50.12;99932.91;1726961;82;21195;-54
2021/06/11 10:37:34;;;;;;;6.45;2.98;;;;;;;26.08;49.77;99924.50;1734226;82;21191;-54
2021/06/11 10:40:49;;;;;;;5.75;2.95;;;;;;;26.15;50.57;99916.58;1702538;81;21196;-56
2021/06/11 10:43:54;;;;;;;2.75;2.40;;;;;;;26.44;50.07;99916.69;1744672;82;21191;-52
2021/06/11 10:46:58;;;;;;;4.70;2.40;;;;;;;26.67;47.98;99910.37;1709820;83;21220;-53
2021/06/11 10:50:10;;;;;;;3.00;2.10;;;;;;;26.94;46.39;99917.73;1685242;84;21758;-53
2021/06/11 10:53:33;;;;;;;2.30;2.00;;;;;;;27.20;44.01;99920.59;1685958;83;21350;-54
2021/06/11 10:56:38;;;;;;;3.65;2.75;;;;;;;27.45;43.52;99927.40;1694992;84;21200;-54
2021/06/11 10:59:49;;;;;;;10.85;5.05;;;;;;;27.60;43.21;99927.80;1665508;86;21605;-54
2021/06/11 11:02:55;;;;;;;3.72;3.15;;;;;;;27.74;44.19;99930.17;1717312;83;21334;-53
2021/06/11 11:06:00;;;;;;;5.70;2.60;;;;;;;27.71;43.80;99926.00;1717504;83;21884;-53
2021/06/11 11:09:08;;;;;;;3.62;2.33;;;;;;;27.78;44.00;99934.90;1732625;82;21212;-53
2021/06/11 11:12:13;;;;;;;2.70;2.42;;;;;;;27.74;43.33;99925.39;1683353;85;21216;-53
2021/06/11 11:15:20;;;;;;;3.15;2.30;;;;;;;27.61;43.73;99914.00;1712433;83;21228;-54
2021/06/11 11:18:41;;;;;;;2.67;2.30;;;;;;;27.39;44.24;99914.53;1699019;83;21224;-53
2021/06/11 11:21:46;;;;;;;2.47;2.05;;;;;;;27.28;44.18;99917.18;1684506;83;21350;-54
2021/06/11 11:24:51;;;;;;;4.03;2.42;;;;;;;27.21;44.49;99909.62;1713199;83;21255;-53
2021/06/11 11:27:59;;;;;;;5.10;2.75;;;;;;;27.12;44.29;99905.78;1710048;81;21213;-55
2021/06/11 11:31:04;;;;;;;3.00;2.25;;;;;;;27.00;45.75;99898.88;1743979;80;21230;-54
2021/06/11 11:34:09;;;;;;;2.87;2.17;;;;;;;26.87;45.20;99892.52;1718144;83;21712;-55
2021/06/11 11:37:14;;;;;;;4.92;2.90;;;;;;;26.79;44.97;99895.95;1681951;85;21224;-54
2021/06/11 11:40:20;;;;;;;3.52;2.90;;;;;;;26.70;44.92;99892.96;1682392;85;21412;-54
2021/06/11 11:43:28;;;;;;;4.72;2.90;;;;;;;26.63;45.90;99899.43;1718628;83;21343;-54
2021/06/11 11:46:34;;;;;;;3.25;2.58;;;;;;;26.57;47.32;99897.80;1714281;81;21368;-53
2021/06/11 11:49:42;;;;;;;2.65;2.42;;;;;;;26.49;47.02;99888.59;1708193;84;21225;-53
2021/06/11 11:52:55;;;;;;;2.85;2.40;;;;;;;26.35;47.81;99891.19;1724600;82;21204;-51
2021/06/11 11:56:02;;;;;;;3.08;2.37;;;;;;;26.17;48.36;99902.27;1710748;84;22000;-54
2021/06/11 11:59:15;;;;;;;3.20;2.60;;;;;;;25.99;49.23;99909.92;1747862;82;21244;-54
2021/06/11 12:02:21;;;;;;;5.45;3.47;;;;;;;25.76;49.92;99918.98;1709743;84;21173;-54
2021/06/11 12:05:25;;;;;;;4.50;3.05;;;;;;;25.56;50.78;99933.08;1710502;83;21370;-53
2021/06/11 12:08:30;;;;;;;6.42;2.87;;;;;;;25.39;51.60;99940.94;1748331;82;21713;-54
2021/06/11 12:11:38;;;;;;;7.30;2.90;;;;;;;25.24;52.13;99954.95;1747674;82;21267;-53
2021/06/11 12:14:45;;;;;;;16.48;3.00;;;;;;;25.07;54.10;99958.62;1681545;85;21734;-53
2021/06/11 12:17:57;;;;;;;7.58;2.10;;;;;;;24.68;53.92;99952.70;1703736;84;21188;-54
2021/06/11 12:21:04;;;;;;;6.33;2.65;;;;;;;24.02;53.63;99949.44;1709968;82;21197;-54
2021/06/11 12:24:10;;;;;;;3.62;2.02;;;;;;;23.39;54.61;99937.34;1746693;80;21184;-53
2021/06/11 12:27:16;;;;;;;4.28;2.60;;;;;;;22.92;56.58;99936.41;1710449;83;21268;-55
2021/06/11 12:30:23;;;;;;;4.97;2.52;;;;;;;22.61;58.36;99921.07;1748202;80;21637;-53
2021/06/11 12:33:29;;;;;;;8.08;3.30;;;;;;;22.35;60.24;99906.00;1700888;83;21382;-52
2021/06/11 12:36:35;;;;;;;9.00;3.30;;;;;;;22.17;62.26;99897.45;1713711;83;21351;-54
2021/06/11 12:39:40;;;;;;;6.10;3.17;;;;;;;22.09;64.05;99902.10;1713176;82;21687;-53
2021/06/11 12:42:50;;;;;;;7.25;3.30;;;;;;;22.00;65.72;99907.86;1713245;83;21446;-53
2021/06/11 12:45:53;;;;;;;6.37;3.50;;;;;;;21.88;65.80;99923.87;1713313;82;21347;-53
2021/06/11 12:49:00;;;;;;;9.18;5.10;;;;;;;21.77;66.30;99937.96;1714949;82;21346;-52
2021/06/11 12:52:05;;;;;;;10.78;3.60;;;;;;;21.64;66.63;99932.73;1714394;83;21216;-53
2021/06/11 12:55:12;;;;;;;7.33;2.80;;;;;;;21.46;66.92;99936.67;1712648;83;21394;-53
2021/06/11 12:58:17;;;;;;;7.53;2.67;;;;;;;21.26;66.93;99933.59;1712966;83;21560;-53
2021/06/11 13:01:22;;;;;;;5.28;2.52;;;;;;;21.14;67.46;99957.05;1712769;83;21205;-54
2021/06/11 13:04:27;;;;;;;7.83;3.02;;;;;;;20.97;67.79;99979.88;1712717;83;21378;-54
2021/06/11 13:07:34;;;;;;;7.33;3.12;;;;;;;20.86;67.76;100001.10;1712504;83;21418;-54
2021/06/11 13:10:40;;;;;;;7.95;3.52;;;;;;;20.78;67.33;100027.95;1712760;83;21216;-55
2021/06/11 13:13:46;;;;;;;7.75;2.80;;;;;;;20.63;68.62;100079.11;1712848;83;21204;-56
2021/06/11 13:16:52;;;;;;;4.55;3.42;;;;;;;20.42;68.55;100087.59;1712445;84;21196;-53
2021/06/11 13:19:58;;;;;;;5.55;2.85;;;;;;;20.20;69.65;100110.77;1712788;83;21923;-55
2021/06/11 13:23:05;;;;;;;4.80;2.40;;;;;;;19.84;71.67;100135.46;1713196;83;21350;-55
2021/06/11 13:26:11;;;;;;;7.75;2.62;;;;;;;19.42;71.62;100133.88;1713006;83;21228;-55
2021/06/11 13:29:18;;;;;;;6.08;2.15;;;;;;;19.00;73.12;100132.16;1712883;84;22018;-55
2021/06/11 13:32:23;;;;;;;1.90;1.67;;;;;;;18.65;75.12;100122.84;1712860;82;21286;-56
2021/06/11 13:35:30;;;;;;;2.12;1.62;;;;;;;18.37;76.65;100129.48;1714805;83;21226;-54
2021/06/11 13:38:38;;;;;;;3.47;1.90;;;;;;;18.21;77.75;100155.05;1742468;82;21219;-54
2021/06/11 13:41:44;;;;;;;4.58;1.85;;;;;;;18.06;78.52;100142.95;1729369;82;21319;-53
2021/06/11 13:44:50;;;;;;;7.90;2.40;;;;;;;17.92;79.49;100153.05;1673618;85;21625;-53
2021/06/11 13:47:56;;;;;;;6.50;2.75;;;;;;;17.77;80.58;100131.25;1705781;82;21358;-53
2021/06/11 13:51:01;;;;;;;6.20;2.75;;;;;;;17.64;81.94;100134.14;1713067;83;21236;-53
2021/06/11 13:54:06;;;;;;;10.60;2.87;;;;;;;17.58;82.81;100141.97;1713743;83;21756;-53
2021/06/11 13:57:14;;;;;;;14.20;3.10;;;;;;;17.53;83.25;100134.88;1713532;83;21227;-53
2021/06/11 14:00:30;;;;;;;8.48;2.42;;;;;;;17.51;83.85;100131.48;1713154;83;21303;-54
2021/06/11 14:03:35;;;;;;;5.03;2.47;;;;;;;17.45;84.32;100112.50;1684848;85;21210;-53
2021/06/11 14:06:40;;;;;;;7.03;2.83;;;;;;;17.42;84.34;100106.00;1714311;83;21208;-53
2021/06/11 14:09:45;;;;;;;6.17;2.40;;;;;;;17.35;83.48;100090.50;1717161;82;21227;-54
2021/06/11 14:12:50;;;;;;;6.22;2.37;;;;;;;17.34;83.71;100081.91;1713866;82;21618;-53
2021/06/11 14:15:57;;;;;;;4.87;2.25;;;;;;;17.35;83.27;100075.28;1684703;84;21247;-54
2021/06/11 14:19:03;;;;;;;3.72;2.30;;;;;;;17.34;82.54;100068.92;1658061;86;21257;-53
2021/06/11 14:22:08;;;;;;;4.67;2.00;;;;;;;17.35;82.37;100062.83;1710819;82;21720;-54
2021/06/11 14:25:17;;;;;;;5.97;2.98;;;;;;;17.37;82.45;100047.72;1712991;83;21251;-53
2021/06/11 14:28:21;;;;;;;6.00;2.85;;;;;;;17.43;83.32;100043.17;1714073;83;21386;-51
2021/06/11 14:31:26;;;;;;;7.50;2.92;;;;;;;17.48;84.09;100029.53;1714177;83;21350;-52
2021/06/11 14:34:34;;;;;;;7.78;3.50;;;;;;;17.53;84.75;100024.16;1711537;82;21546;-53